createdAt,value
2019-04-27T00:02:05.723Z,31.55
2019-04-27T00:04:58.500Z,31.46
2019-04-27T00:07:59.462Z,31.46
2019-04-27T00:10:39.827Z,31.57
2019-04-27T00:13:12.949Z,31.40
2019-04-27T00:16:05.601Z,31.40
2019-04-27T00:18:57.837Z,31.53
2019-04-27T00:21:48.297Z,31.55
2019-04-27T00:24:20.432Z,31.39
2019-04-27T00:26:54.075Z,31.43
2019-04-27T00:29:26.079Z,31.51
2019-04-27T00:31:57.846Z,31.41
2019-04-27T00:34:30.043Z,31.57
2019-04-27T00:37:19.906Z,31.57
2019-04-27T00:40:23.554Z,31.47
2019-04-27T00:42:55.424Z,31.47
2019-04-27T00:45:27.431Z,31.54
2019-04-27T00:47:59.917Z,31.66
2019-04-27T00:50:33.793Z,31.66
2019-04-27T00:53:05.634Z,31.62
2019-04-27T00:55:40.337Z,31.69
2019-04-27T00:58:36.994Z,31.73
2019-04-27T01:01:27.598Z,31.73
2019-04-27T01:04:10.714Z,31.69
2019-04-27T01:06:43.746Z,31.91
2019-04-27T01:09:17.042Z,31.99
2019-04-27T01:11:48.799Z,31.99
2019-04-27T01:14:23.126Z,32.28
2019-04-27T01:16:59.819Z,32.28
2019-04-27T01:19:31.612Z,32.15
2019-04-27T01:22:03.635Z,32.15
2019-04-27T01:24:36.483Z,32.37
2019-04-27T01:27:18.946Z,32.56
2019-04-27T01:29:51.321Z,32.65
2019-04-27T01:32:23.118Z,32.82
2019-04-27T01:34:55.638Z,32.72
2019-04-27T01:37:28.523Z,33.00
2019-04-27T01:40:00.376Z,33.17
2019-04-27T01:42:32.226Z,33.28
2019-04-27T01:45:04.570Z,33.47
2019-04-27T01:47:36.578Z,33.48
2019-04-27T01:50:08.836Z,33.64
2019-04-27T01:52:41.108Z,33.74
2019-04-27T01:55:13.838Z,33.90
2019-04-27T01:57:46.219Z,33.90
2019-04-27T02:00:59.466Z,34.06
2019-04-27T02:03:45.002Z,34.20
2019-04-27T02:06:19.067Z,34.26
2019-04-27T02:08:51.790Z,34.52
2019-04-27T02:11:24.314Z,34.52
2019-04-27T02:13:56.259Z,34.56
2019-04-27T02:16:30.450Z,34.56
2019-04-27T02:19:03.282Z,35.04
2019-04-27T02:21:36.955Z,35.04
2019-04-27T02:24:10.997Z,34.85
2019-04-27T02:26:44.190Z,35.07
2019-04-27T02:29:50.472Z,35.07
2019-04-27T02:32:39.661Z,35.30
2019-04-27T02:35:14.942Z,35.28
2019-04-27T02:37:50.217Z,35.45
2019-04-27T02:40:55.667Z,35.45
2019-04-27T02:43:34.495Z,35.57
2019-04-27T02:46:06.641Z,35.49
2019-04-27T02:48:52.805Z,35.90
2019-04-27T02:51:13.889Z,35.90
2019-04-27T02:54:00.220Z,36.05
2019-04-27T02:56:31.853Z,36.21
2019-04-27T02:59:03.853Z,36.21
2019-04-27T03:01:46.302Z,36.25
2019-04-27T03:04:14.231Z,36.25
2019-04-27T03:06:46.331Z,36.42
2019-04-27T03:09:20.524Z,36.41
2019-04-27T03:11:52.198Z,36.50
2019-04-27T03:14:56.127Z,36.50
2019-04-27T03:17:39.322Z,36.78
2019-04-27T03:20:33.289Z,36.78
2019-04-27T03:23:09.497Z,36.99
2019-04-27T03:26:10.358Z,37.05
2019-04-27T03:28:41.058Z,37.05
2019-04-27T03:31:14.095Z,37.24
2019-04-27T03:33:46.515Z,37.24
2019-04-27T03:36:21.573Z,37.23
2019-04-27T03:38:51.983Z,37.29
2019-04-27T03:41:23.605Z,37.21
2019-04-27T03:43:55.845Z,37.29
2019-04-27T03:46:30.131Z,37.29
2019-04-27T03:49:03.725Z,36.82
2019-04-27T03:51:46.049Z,37.15
2019-04-27T03:54:29.682Z,37.30
2019-04-27T03:57:09.909Z,37.30
2019-04-27T04:00:01.737Z,37.40
2019-04-27T04:02:35.129Z,37.46
2019-04-27T04:05:09.659Z,37.46
2019-04-27T04:07:41.079Z,37.56
2019-04-27T04:10:13.213Z,37.56
2019-04-27T04:13:04.000Z,37.74
2019-04-27T04:16:00.520Z,37.78
2019-04-27T04:18:51.323Z,37.78
2019-04-27T04:21:23.456Z,38.09
2019-04-27T04:23:55.086Z,38.04
2019-04-27T04:26:32.158Z,38.20
2019-04-27T04:29:02.380Z,37.70
2019-04-27T04:31:34.167Z,38.22
2019-04-27T04:34:05.947Z,38.22
2019-04-27T04:36:39.427Z,38.46
2019-04-27T04:39:12.427Z,38.46
2019-04-27T04:42:03.474Z,38.50
2019-04-27T04:45:03.025Z,38.00
2019-04-27T04:47:42.610Z,38.00
2019-04-27T04:50:15.374Z,38.08
2019-04-27T04:52:49.967Z,38.12
2019-04-27T04:55:22.174Z,38.18
2019-04-27T04:57:56.699Z,38.61
2019-04-27T05:00:29.970Z,38.39
2019-04-27T05:03:01.875Z,38.08
2019-04-27T05:05:33.685Z,37.96
2019-04-27T05:08:05.858Z,38.32
2019-04-27T05:10:39.522Z,38.57
2019-04-27T05:13:11.567Z,38.42
2019-04-27T05:15:43.891Z,38.36
2019-04-27T05:18:15.908Z,38.36
2019-04-27T05:20:54.271Z,38.74
2019-04-27T05:23:28.702Z,38.74
2019-04-27T05:26:00.356Z,38.74
2019-04-27T05:28:33.614Z,38.83
2019-04-27T05:31:05.825Z,38.55
2019-04-27T05:33:38.885Z,38.46
2019-04-27T05:36:11.158Z,38.66
2019-04-27T05:38:45.869Z,38.67
2019-04-27T05:41:18.708Z,38.49
2019-04-27T05:44:11.154Z,38.78
2019-04-27T05:47:09.990Z,38.78
2019-04-27T05:49:49.166Z,38.76
2019-04-27T05:52:30.673Z,38.93
2019-04-27T05:55:03.001Z,39.00
2019-04-27T05:57:34.905Z,39.14
2019-04-27T06:00:09.188Z,39.14
2019-04-27T06:02:41.719Z,39.07
2019-04-27T06:05:14.223Z,39.07
2019-04-27T06:07:45.869Z,39.09
2019-04-27T06:10:19.684Z,39.05
2019-04-27T06:12:52.151Z,39.04
2019-04-27T06:15:24.459Z,38.78
2019-04-27T06:17:56.053Z,38.92
2019-04-27T06:20:28.611Z,39.24
2019-04-27T06:23:00.707Z,39.22
2019-04-27T06:25:32.344Z,39.22
2019-04-27T06:28:04.314Z,39.28
2019-04-27T06:30:36.743Z,39.40
2019-04-27T06:33:09.386Z,39.40
2019-04-27T06:35:41.718Z,39.23
2019-04-27T06:38:13.728Z,39.23
2019-04-27T06:40:45.493Z,39.23
2019-04-27T06:43:19.154Z,39.41
2019-04-27T06:45:51.302Z,39.41
2019-04-27T06:48:26.746Z,39.53
2019-04-27T06:51:03.647Z,39.44
2019-04-27T06:53:33.103Z,39.26
2019-04-27T06:56:05.071Z,39.66
2019-04-27T06:58:40.464Z,40.07
2019-04-27T07:01:11.218Z,39.54
2019-04-27T07:03:43.117Z,39.54
2019-04-27T07:06:15.013Z,39.26
2019-04-27T07:08:46.975Z,39.38
2019-04-27T07:11:19.761Z,39.65
2019-04-27T07:13:51.954Z,39.49
2019-04-27T07:16:23.640Z,39.50
2019-04-27T07:18:55.995Z,39.60
2019-04-27T07:21:28.699Z,39.60
2019-04-27T07:24:01.227Z,39.72
2019-04-27T07:26:33.935Z,39.72
2019-04-27T07:29:06.356Z,39.73
2019-04-27T07:31:40.291Z,39.37
2019-04-27T07:34:20.613Z,39.76
2019-04-27T07:36:54.440Z,39.76
2019-04-27T07:39:31.260Z,39.59
2019-04-27T07:42:06.336Z,39.99
2019-04-27T07:45:00.258Z,39.99
2019-04-27T07:47:32.169Z,39.50
2019-04-27T07:50:11.286Z,39.42
2019-04-27T07:52:48.682Z,39.42
2019-04-27T07:55:21.176Z,39.19
2019-04-27T07:57:55.546Z,39.37
2019-04-27T08:00:28.959Z,39.19
2019-04-27T08:03:01.463Z,39.19
2019-04-27T08:05:34.437Z,39.29
2019-04-27T08:08:09.469Z,39.40
2019-04-27T08:10:41.733Z,39.49
2019-04-27T08:13:14.100Z,39.49
2019-04-27T08:15:46.719Z,39.77
2019-04-27T08:18:19.054Z,39.93
2019-04-27T08:20:51.634Z,39.93
2019-04-27T08:23:23.902Z,39.92
2019-04-27T08:25:56.236Z,39.95
2019-04-27T08:28:38.715Z,39.85
2019-04-27T08:31:38.655Z,39.93
2019-04-27T08:34:32.455Z,39.80
2019-04-27T08:37:09.143Z,39.80
2019-04-27T08:39:45.034Z,40.09
2019-04-27T08:42:19.483Z,40.20
2019-04-27T08:44:53.131Z,39.22
2019-04-27T08:47:29.183Z,39.22
2019-04-27T08:50:03.573Z,39.54
2019-04-27T08:52:41.480Z,39.89
2019-04-27T08:55:15.502Z,39.91
2019-04-27T08:57:49.599Z,40.07
2019-04-27T09:00:24.268Z,40.01
2019-04-27T09:02:59.507Z,40.12
2019-04-27T09:05:34.494Z,39.97
2019-04-27T09:08:29.015Z,40.17
2019-04-27T09:11:20.420Z,40.01
2019-04-27T09:14:09.058Z,40.11
2019-04-27T09:17:04.285Z,40.11
2019-04-27T09:19:57.042Z,40.41
2019-04-27T09:22:38.980Z,40.41
2019-04-27T09:25:15.651Z,40.29
2019-04-27T09:27:52.755Z,40.13
2019-04-27T09:30:29.762Z,40.30
2019-04-27T09:33:05.431Z,40.07
2019-04-27T09:35:43.925Z,40.32
2019-04-27T09:38:37.061Z,40.15
2019-04-27T09:41:09.041Z,40.24
2019-04-27T09:44:02.522Z,40.31
2019-04-27T09:46:36.475Z,40.34
2019-04-27T09:49:11.914Z,40.34
2019-04-27T09:51:46.071Z,40.20
2019-04-27T09:54:23.680Z,40.10
2019-04-27T09:57:19.159Z,40.10
2019-04-27T09:59:51.250Z,39.92
2019-04-27T10:02:22.914Z,40.15
2019-04-27T10:04:56.402Z,40.41
2019-04-27T10:07:28.073Z,40.22
2019-04-27T10:09:59.933Z,40.24
2019-04-27T10:12:34.340Z,40.20
2019-04-27T10:15:07.519Z,40.20
2019-04-27T10:17:47.456Z,40.32
2019-04-27T10:20:20.036Z,40.06
2019-04-27T10:22:52.648Z,40.32
2019-04-27T10:25:26.824Z,40.26
2019-04-27T10:28:01.515Z,40.24
2019-04-27T10:30:33.610Z,40.38
2019-04-27T10:33:07.906Z,40.38
2019-04-27T10:35:39.624Z,40.26
2019-04-27T10:38:17.211Z,40.18
2019-04-27T10:40:49.579Z,40.22
2019-04-27T10:43:21.866Z,39.93
2019-04-27T10:45:53.783Z,39.98
2019-04-27T10:48:26.513Z,39.98
2019-04-27T10:50:58.126Z,40.07
2019-04-27T10:53:29.964Z,40.28
2019-04-27T10:56:01.870Z,40.28
2019-04-27T10:58:35.266Z,40.23
2019-04-27T11:01:09.126Z,39.94
2019-04-27T11:04:05.990Z,40.03
2019-04-27T11:06:41.344Z,40.03
2019-04-27T11:09:13.601Z,39.83
2019-04-27T11:11:46.402Z,39.83
2019-04-27T11:14:18.787Z,39.86
2019-04-27T11:16:50.679Z,40.01
2019-04-27T11:19:22.667Z,39.82
2019-04-27T11:21:54.390Z,39.82
2019-04-27T11:24:26.421Z,39.85
2019-04-27T11:26:58.087Z,40.00
2019-04-27T11:29:29.925Z,40.07
2019-04-27T11:32:01.790Z,39.99
2019-04-27T11:34:51.251Z,39.80
2019-04-27T11:37:30.028Z,39.76
2019-04-27T11:40:01.928Z,39.76
2019-04-27T11:42:34.965Z,39.73
2019-04-27T11:45:08.385Z,39.91
2019-04-27T11:47:40.191Z,39.61
2019-04-27T11:50:12.459Z,39.73
2019-04-27T11:53:06.028Z,39.73
2019-04-27T11:55:38.231Z,39.73
2019-04-27T11:58:10.197Z,39.73
2019-04-27T12:00:42.504Z,39.73
2019-04-27T12:03:16.528Z,39.73
2019-04-27T12:05:48.394Z,39.70
2019-04-27T12:08:20.386Z,39.70
2019-04-27T12:10:52.626Z,39.68
2019-04-27T12:13:25.913Z,39.68
2019-04-27T12:15:59.012Z,39.54
2019-04-27T12:18:30.597Z,39.54
2019-04-27T12:21:02.387Z,39.54
2019-04-27T12:23:37.108Z,39.48
2019-04-27T12:26:09.276Z,39.48
2019-04-27T12:28:50.016Z,39.38
2019-04-27T12:31:35.780Z,39.41
2019-04-27T12:34:07.317Z,39.36
2019-04-27T12:36:39.245Z,39.29
2019-04-27T12:39:15.646Z,39.38
2019-04-27T12:41:47.521Z,39.34
2019-04-27T12:44:19.639Z,39.29
2019-04-27T12:46:52.172Z,39.23
2019-04-27T12:49:23.841Z,39.19
2019-04-27T12:51:55.930Z,39.12
2019-04-27T12:54:39.843Z,39.15
2019-04-27T12:57:39.459Z,39.03
2019-04-27T13:00:20.270Z,39.10
2019-04-27T13:02:52.039Z,39.08
2019-04-27T13:05:25.720Z,38.96
2019-04-27T13:07:57.686Z,39.01
2019-04-27T13:10:30.784Z,38.86
2019-04-27T13:13:02.880Z,38.86
2019-04-27T13:15:35.683Z,38.95
2019-04-27T13:18:07.516Z,39.05
2019-04-27T13:20:39.420Z,39.07
2019-04-27T13:23:11.609Z,39.00
2019-04-27T13:25:43.595Z,39.06
2019-04-27T13:28:15.289Z,39.06
2019-04-27T13:30:47.600Z,38.93
2019-04-27T13:33:19.111Z,38.51
2019-04-27T13:35:51.064Z,38.41
2019-04-27T13:38:23.123Z,38.41
2019-04-27T13:41:08.734Z,38.36
2019-04-27T13:43:40.825Z,38.27
2019-04-27T13:46:38.213Z,38.21
2019-04-27T13:49:40.963Z,38.21
2019-04-27T13:52:16.814Z,38.01
2019-04-27T13:54:48.837Z,38.01
2019-04-27T13:57:20.900Z,37.97
2019-04-27T13:59:52.855Z,37.99
2019-04-27T14:02:31.864Z,37.95
2019-04-27T14:04:59.902Z,37.94
2019-04-27T14:07:31.998Z,37.95
2019-04-27T14:10:04.163Z,37.71
2019-04-27T14:12:36.253Z,37.71
2019-04-27T14:15:08.745Z,37.79
2019-04-27T14:17:40.988Z,37.61
2019-04-27T14:20:12.797Z,37.61
2019-04-27T14:22:44.719Z,37.64
2019-04-27T14:25:18.060Z,37.64
2019-04-27T14:27:50.423Z,37.53
2019-04-27T14:30:22.462Z,37.65
2019-04-27T14:32:54.310Z,37.45
2019-04-27T14:35:28.298Z,37.45
2019-04-27T14:38:00.287Z,37.33
2019-04-27T14:40:32.336Z,37.42
2019-04-27T14:43:04.483Z,37.44
2019-04-27T14:45:39.538Z,37.44
2019-04-27T14:48:12.838Z,37.46
2019-04-27T14:50:44.308Z,37.40
2019-04-27T14:53:16.257Z,37.37
2019-04-27T14:55:49.035Z,37.40
2019-04-27T14:58:21.984Z,37.34
2019-04-27T15:00:54.040Z,35.58
2019-04-27T15:03:28.968Z,36.03
2019-04-27T15:06:00.550Z,36.03
2019-04-27T15:08:34.031Z,36.93
2019-04-27T15:11:10.454Z,36.93
2019-04-27T15:13:43.079Z,36.94
2019-04-27T15:16:14.798Z,36.88
2019-04-27T15:18:51.767Z,36.88
2019-04-27T15:21:25.454Z,36.90
2019-04-27T15:24:04.265Z,36.82
2019-04-27T15:26:33.248Z,36.83
2019-04-27T15:29:06.674Z,36.73
2019-04-27T15:31:45.845Z,36.73
2019-04-27T15:34:35.475Z,36.65
2019-04-27T15:37:35.371Z,36.65
2019-04-27T15:40:36.590Z,36.44
2019-04-27T15:43:38.528Z,36.44
2019-04-27T15:46:10.162Z,36.39
2019-04-27T15:48:42.639Z,36.48
2019-04-27T15:51:17.395Z,36.57
2019-04-27T15:53:50.711Z,36.57
2019-04-27T15:56:22.487Z,36.47
2019-04-27T15:58:55.817Z,36.88
2019-04-27T16:01:31.238Z,36.88
2019-04-27T16:04:02.619Z,37.06
2019-04-27T16:06:35.517Z,37.10
2019-04-27T16:09:16.010Z,37.09
2019-04-27T16:11:50.108Z,37.17
2019-04-27T16:14:20.881Z,36.93
2019-04-27T16:16:52.776Z,37.08
2019-04-27T16:19:24.379Z,37.08
2019-04-27T16:21:59.106Z,36.91
2019-04-27T16:24:31.488Z,36.98
2019-04-27T16:27:03.205Z,36.92
2019-04-27T16:29:35.331Z,36.92
2019-04-27T16:32:11.250Z,36.89
2019-04-27T16:34:41.415Z,36.89
2019-04-27T16:37:18.974Z,37.05
2019-04-27T16:39:49.550Z,36.94
2019-04-27T16:42:21.793Z,36.66
2019-04-27T16:44:53.855Z,36.68
2019-04-27T16:47:25.719Z,36.48
2019-04-27T16:50:00.792Z,36.55
2019-04-27T16:52:32.692Z,36.55
2019-04-27T16:55:04.766Z,36.45
2019-04-27T16:57:39.640Z,36.29
2019-04-27T17:00:14.941Z,36.35
2019-04-27T17:02:49.501Z,36.35
2019-04-27T17:05:24.396Z,36.56
2019-04-27T17:07:55.082Z,36.46
2019-04-27T17:10:28.655Z,36.46
2019-04-27T17:13:00.406Z,36.27
2019-04-27T17:15:58.956Z,36.27
2019-04-27T17:18:38.565Z,36.19
2019-04-27T17:21:18.803Z,36.22
2019-04-27T17:23:44.227Z,36.22
2019-04-27T17:26:21.731Z,35.94
2019-04-27T17:28:59.209Z,35.94
2019-04-27T17:31:32.779Z,36.13
2019-04-27T17:34:08.019Z,36.13
2019-04-27T17:36:40.276Z,36.04
2019-04-27T17:39:12.489Z,35.91
2019-04-27T17:41:49.273Z,35.84
2019-04-27T17:44:22.631Z,35.83
2019-04-27T17:47:35.895Z,35.83
2019-04-27T17:50:05.042Z,35.93
2019-04-27T17:52:55.456Z,36.07
2019-04-27T17:55:25.434Z,35.69
2019-04-27T17:58:05.316Z,35.71
2019-04-27T18:00:41.665Z,36.08
2019-04-27T18:03:17.492Z,35.95
2019-04-27T18:05:54.027Z,35.86
2019-04-27T18:08:31.851Z,35.75
2019-04-27T18:11:03.777Z,35.75
2019-04-27T18:13:42.127Z,35.81
2019-04-27T18:16:13.790Z,35.81
2019-04-27T18:19:11.591Z,35.61
2019-04-27T18:22:00.513Z,35.61
2019-04-27T18:24:39.694Z,35.41
2019-04-27T18:27:49.594Z,35.41
2019-04-27T18:30:33.800Z,35.31
2019-04-27T18:33:09.637Z,35.28
2019-04-27T18:35:42.385Z,35.28
2019-04-27T18:38:13.944Z,35.20
2019-04-27T18:40:45.497Z,35.30
2019-04-27T18:43:18.729Z,35.26
2019-04-27T18:45:50.607Z,35.47
2019-04-27T18:48:32.326Z,35.31
2019-04-27T18:51:31.943Z,35.13
2019-04-27T18:54:04.006Z,35.26
2019-04-27T18:56:38.614Z,34.98
2019-04-27T18:59:09.704Z,34.92
2019-04-27T19:01:42.071Z,35.14
2019-04-27T19:04:13.874Z,34.97
2019-04-27T19:06:45.824Z,34.97
2019-04-27T19:09:18.829Z,35.05
2019-04-27T19:11:56.041Z,34.82
2019-04-27T19:14:28.222Z,34.82
2019-04-27T19:17:00.344Z,34.83
2019-04-27T19:19:32.278Z,34.77
2019-04-27T19:22:03.834Z,34.77
2019-04-27T19:24:35.647Z,34.78
2019-04-27T19:27:30.262Z,34.85
2019-04-27T19:30:11.860Z,34.63
2019-04-27T19:32:44.204Z,34.85
2019-04-27T19:35:19.778Z,34.62
2019-04-27T19:37:50.702Z,34.71
2019-04-27T19:40:22.513Z,34.65
2019-04-27T19:42:54.549Z,34.65
2019-04-27T19:45:26.344Z,34.81
2019-04-27T19:47:57.876Z,34.76
2019-04-27T19:50:29.621Z,34.76
2019-04-27T19:53:01.428Z,34.62
2019-04-27T19:55:33.286Z,34.52
2019-04-27T19:58:05.631Z,34.47
2019-04-27T20:00:48.452Z,34.44
2019-04-27T20:03:28.870Z,34.52
2019-04-27T20:06:00.797Z,34.09
2019-04-27T20:08:34.795Z,34.30
2019-04-27T20:11:06.708Z,34.36
2019-04-27T20:13:38.325Z,34.22
2019-04-27T20:16:10.851Z,34.21
2019-04-27T20:18:43.326Z,34.14
2019-04-27T20:21:15.485Z,34.07
2019-04-27T20:23:47.158Z,34.07
2019-04-27T20:26:19.217Z,34.07
2019-04-27T20:28:51.385Z,34.19
2019-04-27T20:31:23.561Z,34.19
2019-04-27T20:33:58.297Z,34.02
2019-04-27T20:36:31.350Z,34.02
2019-04-27T20:39:05.834Z,34.12
2019-04-27T20:41:38.810Z,33.86
2019-04-27T20:44:12.342Z,33.92
2019-04-27T20:46:43.748Z,33.87
2019-04-27T20:49:19.921Z,33.63
2019-04-27T20:52:10.969Z,33.63
2019-04-27T20:54:43.128Z,33.93
2019-04-27T20:57:14.998Z,33.98
2019-04-27T20:59:46.967Z,33.80
2019-04-27T21:02:51.953Z,33.91
2019-04-27T21:05:51.032Z,33.92
2019-04-27T21:08:23.116Z,33.78
2019-04-27T21:10:54.698Z,34.07
2019-04-27T21:13:26.379Z,33.96
2019-04-27T21:15:58.192Z,33.96
2019-04-27T21:18:31.812Z,33.62
2019-04-27T21:21:04.631Z,33.62
2019-04-27T21:23:36.241Z,33.81
2019-04-27T21:26:08.213Z,33.86
2019-04-27T21:28:42.992Z,33.62
2019-04-27T21:31:13.702Z,33.62
2019-04-27T21:33:45.592Z,33.68
2019-04-27T21:36:17.738Z,33.68
2019-04-27T21:38:51.083Z,33.60
2019-04-27T21:41:22.821Z,33.75
2019-04-27T21:43:54.372Z,33.78
2019-04-27T21:46:26.405Z,33.61
2019-04-27T21:49:00.032Z,33.57
2019-04-27T21:51:33.836Z,33.48
2019-04-27T21:54:20.957Z,33.73
2019-04-27T21:56:52.880Z,33.55
2019-04-27T21:59:24.629Z,33.55
2019-04-27T22:01:58.048Z,33.63
2019-04-27T22:04:31.384Z,33.64
2019-04-27T22:07:03.552Z,33.47
2019-04-27T22:09:35.184Z,33.47
2019-04-27T22:12:07.714Z,33.50
2019-04-27T22:14:39.601Z,33.56
2019-04-27T22:17:11.136Z,33.56
2019-04-27T22:19:43.013Z,33.65
2019-04-27T22:22:25.766Z,33.68
2019-04-27T22:25:07.527Z,33.69
2019-04-27T22:27:41.168Z,33.57
2019-04-27T22:30:13.184Z,33.57
2019-04-27T22:32:45.429Z,33.65
2019-04-27T22:35:17.733Z,33.47
2019-04-27T22:37:49.528Z,33.60
2019-04-27T22:40:43.481Z,33.01
2019-04-27T22:43:51.281Z,33.01
2019-04-27T22:46:24.222Z,33.40
2019-04-27T22:48:55.845Z,33.42
2019-04-27T22:51:27.530Z,33.42
2019-04-27T22:53:59.228Z,33.30
2019-04-27T22:56:32.124Z,33.32
2019-04-27T22:59:22.321Z,33.27
2019-04-27T23:02:13.415Z,32.92
2019-04-27T23:04:51.483Z,32.92
2019-04-27T23:07:25.039Z,33.07
2019-04-27T23:09:56.887Z,33.23
2019-04-27T23:12:28.792Z,33.23
2019-04-27T23:15:01.093Z,33.13
2019-04-27T23:17:56.613Z,33.08
2019-04-27T23:20:28.546Z,33.08
2019-04-27T23:23:02.791Z,33.14
2019-04-27T23:25:34.004Z,32.86
2019-04-27T23:28:05.910Z,32.86
2019-04-27T23:30:50.667Z,32.98
2019-04-27T23:33:22.511Z,32.98
2019-04-27T23:35:54.470Z,33.09
2019-04-27T23:38:26.213Z,33.09
2019-04-27T23:40:58.078Z,32.87
2019-04-27T23:43:29.758Z,32.86
2019-04-27T23:46:03.120Z,33.01
2019-04-27T23:48:34.999Z,32.61
2019-04-27T23:51:25.307Z,32.63
2019-04-27T23:53:57.246Z,32.80
2019-04-27T23:56:29.009Z,32.85
2019-04-27T23:59:01.919Z,32.80
